Time;durP1;ratioP1;P1;durP2;ratioP2;P2;SDS_P1;SDS_P2;PMS_P1;PMS_P2;Temp;Humidity;BMP_temperature;BMP_pressure;BME280_temperature;BME280_humidity;BME280_pressure;Samples;Min_cycle;Max_cycle;Signal;HPM_P1;HPM_P2
2022/11/23 00:00:59;;;;;;;15.73;7.30;;;;;;;;;;4980869;28;20070;-75
2022/11/23 00:03:24;;;;;;;19.15;7.68;;;;;;;;;;4988855;28;20379;-75
2022/11/23 00:05:50;;;;;;;21.60;8.52;;;;;;;;;;4978861;28;20050;-77
2022/11/23 00:08:15;;;;;;;20.60;7.63;;;;;;;;;;4980471;28;20545;-75
2022/11/23 00:10:40;;;;;;;21.17;7.78;;;;;;;;;;4977736;28;20037;-75
2022/11/23 00:13:06;;;;;;;28.65;8.75;;;;;;;;;;4974539;28;20546;-75
2022/11/23 00:15:31;;;;;;;26.10;9.25;;;;;;;;;;4977711;28;20038;-75
2022/11/23 00:17:59;;;;;;;28.52;8.77;;;;;;;;;;4989769;28;20050;-75
2022/11/23 00:20:24;;;;;;;28.00;9.75;;;;;;;;;;4991094;28;20092;-75
2022/11/23 00:22:49;;;;;;;16.33;7.97;;;;;;;;;;4990463;28;20042;-75
2022/11/23 00:25:15;;;;;;;23.85;8.77;;;;;;;;;;4990620;28;20034;-75
2022/11/23 00:27:40;;;;;;;27.08;9.55;;;;;;;;;;4978022;28;20031;-76
2022/11/23 00:30:06;;;;;;;16.38;7.22;;;;;;;;;;4975909;28;20129;-75
2022/11/23 00:32:32;;;;;;;17.23;7.53;;;;;;;;;;4981165;28;20471;-76
2022/11/23 00:34:57;;;;;;;24.98;8.85;;;;;;;;;;4978947;28;20082;-75
2022/11/23 00:37:22;;;;;;;21.20;7.57;;;;;;;;;;4986912;28;20061;-77
2022/11/23 00:39:48;;;;;;;21.48;7.18;;;;;;;;;;4979764;28;20061;-75
2022/11/23 00:42:13;;;;;;;22.13;8.20;;;;;;;;;;4985293;28;20390;-75
2022/11/23 00:44:38;;;;;;;25.35;8.68;;;;;;;;;;4976533;28;20038;-76
2022/11/23 00:47:04;;;;;;;19.42;8.73;;;;;;;;;;4986666;28;20046;-76
2022/11/23 00:49:29;;;;;;;28.52;8.27;;;;;;;;;;4985472;28;20383;-76
2022/11/23 00:51:55;;;;;;;17.83;7.03;;;;;;;;;;4985455;28;20042;-76
2022/11/23 00:54:20;;;;;;;25.17;9.32;;;;;;;;;;4979557;28;20022;-77
2022/11/23 00:56:45;;;;;;;24.10;7.82;;;;;;;;;;4981996;28;20031;-76
2022/11/23 00:59:11;;;;;;;24.02;9.43;;;;;;;;;;4982998;28;20545;-76
2022/11/23 01:01:36;;;;;;;19.33;7.38;;;;;;;;;;4986029;28;20251;-77
2022/11/23 01:04:04;;;;;;;21.23;8.75;;;;;;;;;;4983516;28;20679;-76
2022/11/23 01:06:32;;;;;;;16.95;7.43;;;;;;;;;;4990343;28;20053;-76
2022/11/23 01:08:59;;;;;;;29.30;9.02;;;;;;;;;;4972319;28;20408;-76
2022/11/23 01:11:27;;;;;;;24.90;8.15;;;;;;;;;;4994212;28;20038;-76
2022/11/23 01:13:53;;;;;;;26.20;8.48;;;;;;;;;;4986194;28;20038;-77
2022/11/23 01:16:21;;;;;;;22.55;7.40;;;;;;;;;;4980352;28;20100;-76
2022/11/23 01:18:46;;;;;;;18.58;8.32;;;;;;;;;;4984783;28;20470;-77
2022/11/23 01:21:12;;;;;;;12.82;6.50;;;;;;;;;;4976901;28;20045;-76
2022/11/23 01:23:37;;;;;;;19.23;6.70;;;;;;;;;;4990419;28;20033;-77
2022/11/23 01:26:12;;;;;;;15.05;6.07;;;;;;;;;;4985428;28;20042;-77
2022/11/23 01:28:39;;;;;;;19.75;4.45;;;;;;;;;;4990499;28;20426;-76
2022/11/23 01:31:06;;;;;;;8.10;2.95;;;;;;;;;;4984789;28;20081;-77
2022/11/23 01:33:32;;;;;;;16.73;3.17;;;;;;;;;;4987200;28;20065;-76
2022/11/23 01:35:57;;;;;;;14.85;3.15;;;;;;;;;;4984478;28;20077;-76
2022/11/23 01:38:22;;;;;;;13.10;2.88;;;;;;;;;;4988398;28;20066;-76
2022/11/23 01:40:48;;;;;;;12.57;1.98;;;;;;;;;;4984208;28;20038;-76
2022/11/23 01:43:15;;;;;;;12.00;2.42;;;;;;;;;;4983184;28;20497;-76
2022/11/23 01:45:52;;;;;;;13.18;2.60;;;;;;;;;;4966678;28;20375;-76
2022/11/23 01:48:46;;;;;;;8.45;1.85;;;;;;;;;;4974029;28;20051;-76
2022/11/23 01:51:26;;;;;;;14.98;2.10;;;;;;;;;;4987662;28;20050;-76
2022/11/23 01:53:55;;;;;;;20.65;2.53;;;;;;;;;;4978420;28;20105;-77
2022/11/23 01:56:25;;;;;;;14.52;2.17;;;;;;;;;;4978996;28;20037;-77
2022/11/23 01:58:52;;;;;;;21.27;3.45;;;;;;;;;;4980695;28;20034;-76
2022/11/23 02:01:18;;;;;;;13.23;2.80;;;;;;;;;;4978833;28;20047;-76
2022/11/23 02:03:46;;;;;;;14.07;6.78;;;;;;;;;;4980715;28;20022;-76
2022/11/23 02:06:17;;;;;;;19.30;3.00;;;;;;;;;;4983374;28;20050;-76
2022/11/23 02:08:42;;;;;;;21.70;5.72;;;;;;;;;;4980963;28;20490;-76
2022/11/23 02:11:10;;;;;;;19.23;5.22;;;;;;;;;;4991020;28;20041;-76
2022/11/23 02:13:35;;;;;;;23.95;6.50;;;;;;;;;;4986045;28;20050;-76
2022/11/23 02:16:00;;;;;;;23.27;7.22;;;;;;;;;;4980589;28;20495;-75
2022/11/23 02:18:28;;;;;;;19.27;2.72;;;;;;;;;;4983622;28;20066;-76
2022/11/23 02:20:55;;;;;;;16.48;2.85;;;;;;;;;;4983785;28;20042;-76
2022/11/23 02:23:56;;;;;;;13.95;2.50;;;;;;;;;;4983470;28;20042;-76
2022/11/23 02:26:27;;;;;;;14.77;2.78;;;;;;;;;;4990069;28;20092;-75
2022/11/23 02:29:06;;;;;;;14.40;2.95;;;;;;;;;;4990027;28;20049;-76
2022/11/23 02:31:32;;;;;;;13.98;2.75;;;;;;;;;;4975856;28;20039;-76
2022/11/23 02:33:58;;;;;;;21.80;3.15;;;;;;;;;;4981193;28;20031;-76
2022/11/23 02:36:40;;;;;;;26.38;3.58;;;;;;;;;;4984089;28;20074;-76
2022/11/23 02:39:07;;;;;;;23.85;3.35;;;;;;;;;;4985184;28;20035;-76
2022/11/23 02:41:42;;;;;;;13.95;3.03;;;;;;;;;;4982818;28;20080;-76
2022/11/23 02:44:16;;;;;;;21.35;3.85;;;;;;;;;;4985289;28;20035;-76
2022/11/23 02:46:42;;;;;;;24.27;4.47;;;;;;;;;;4982802;28;20078;-76
2022/11/23 02:49:07;;;;;;;15.23;3.92;;;;;;;;;;4982257;28;20069;-76
2022/11/23 02:51:32;;;;;;;15.05;3.50;;;;;;;;;;4990964;28;20035;-77
2022/11/23 02:53:58;;;;;;;32.72;6.15;;;;;;;;;;4979311;28;20023;-75
2022/11/23 02:56:23;;;;;;;10.57;3.47;;;;;;;;;;4983187;28;20142;-75
2022/11/23 02:58:49;;;;;;;30.80;4.47;;;;;;;;;;4985110;28;20042;-76
2022/11/23 03:01:14;;;;;;;29.40;5.68;;;;;;;;;;4990040;28;20034;-75
2022/11/23 03:03:40;;;;;;;16.90;5.43;;;;;;;;;;4982128;28;20042;-75
2022/11/23 03:06:05;;;;;;;17.52;5.05;;;;;;;;;;4984067;28;20113;-75
2022/11/23 03:08:30;;;;;;;13.93;4.60;;;;;;;;;;4984819;28;20387;-77
2022/11/23 03:10:56;;;;;;;38.40;6.13;;;;;;;;;;4987711;28;20181;-74
2022/11/23 03:13:21;;;;;;;19.23;4.95;;;;;;;;;;4990522;28;20396;-75
2022/11/23 03:15:47;;;;;;;18.17;5.53;;;;;;;;;;4979300;28;20042;-75
2022/11/23 03:18:12;;;;;;;36.80;6.90;;;;;;;;;;4985160;28;20045;-75
2022/11/23 03:20:37;;;;;;;23.08;5.53;;;;;;;;;;4979514;28;20049;-75
2022/11/23 03:23:03;;;;;;;15.43;5.20;;;;;;;;;;4976513;28;20479;-75
2022/11/23 03:25:28;;;;;;;21.45;3.88;;;;;;;;;;4979490;28;20041;-76
2022/11/23 03:27:53;;;;;;;25.38;4.68;;;;;;;;;;4988447;28;20133;-76
2022/11/23 03:30:19;;;;;;;110.78;9.40;;;;;;;;;;4981931;28;20065;-76
2022/11/23 03:32:44;;;;;;;26.15;6.95;;;;;;;;;;4977510;28;20483;-76
2022/11/23 03:35:09;;;;;;;52.92;9.02;;;;;;;;;;4983038;28;20081;-76
2022/11/23 03:37:35;;;;;;;20.42;6.15;;;;;;;;;;4982810;28;20026;-76
2022/11/23 03:40:00;;;;;;;16.80;5.80;;;;;;;;;;4986620;28;20545;-76
2022/11/23 03:42:26;;;;;;;22.85;7.35;;;;;;;;;;4975729;28;20034;-75
2022/11/23 03:44:51;;;;;;;24.73;6.70;;;;;;;;;;4988562;28;20096;-75
2022/11/23 03:47:16;;;;;;;17.38;3.95;;;;;;;;;;4986005;28;20112;-75
2022/11/23 03:49:42;;;;;;;14.68;4.35;;;;;;;;;;4980968;28;20114;-75
2022/11/23 03:52:07;;;;;;;11.38;3.20;;;;;;;;;;4982117;28;20383;-75
2022/11/23 03:54:32;;;;;;;18.67;5.10;;;;;;;;;;4981247;28;20038;-75
2022/11/23 03:56:58;;;;;;;8.45;2.00;;;;;;;;;;4991348;28;20430;-75
2022/11/23 03:59:23;;;;;;;13.80;2.15;;;;;;;;;;4980138;28;20026;-75
2022/11/23 04:01:49;;;;;;;15.52;2.58;;;;;;;;;;4987847;28;20478;-75
2022/11/23 04:04:14;;;;;;;20.33;2.10;;;;;;;;;;4982889;28;20039;-75
2022/11/23 04:06:39;;;;;;;15.85;1.88;;;;;;;;;;4978037;28;20461;-75
2022/11/23 04:09:05;;;;;;;9.80;1.15;;;;;;;;;;4979953;28;20038;-75
2022/11/23 04:11:30;;;;;;;10.30;1.08;;;;;;;;;;4982328;28;20031;-75
2022/11/23 04:13:55;;;;;;;10.32;1.63;;;;;;;;;;4982313;28;20034;-75
2022/11/23 04:16:21;;;;;;;19.73;1.67;;;;;;;;;;4979172;28;20071;-75
2022/11/23 04:18:46;;;;;;;7.25;1.45;;;;;;;;;;4980458;28;20066;-75
2022/11/23 04:21:11;;;;;;;4.55;1.20;;;;;;;;;;4980721;28;20042;-75
2022/11/23 04:23:37;;;;;;;15.65;1.42;;;;;;;;;;4981138;28;20034;-75
2022/11/23 04:26:02;;;;;;;7.50;1.40;;;;;;;;;;4979149;28;20039;-75
2022/11/23 04:28:28;;;;;;;15.77;1.33;;;;;;;;;;4966519;28;20041;-75
2022/11/23 04:30:53;;;;;;;8.55;1.10;;;;;;;;;;4983231;28;20220;-76
2022/11/23 04:33:19;;;;;;;16.10;1.42;;;;;;;;;;4982629;28;20042;-75
2022/11/23 04:35:44;;;;;;;14.77;1.15;;;;;;;;;;4981139;28;20042;-75
2022/11/23 04:38:09;;;;;;;12.68;1.25;;;;;;;;;;4987093;28;20407;-75
2022/11/23 04:40:35;;;;;;;20.33;1.38;;;;;;;;;;4989513;28;20038;-75
2022/11/23 04:43:01;;;;;;;14.60;1.60;;;;;;;;;;4994975;28;20038;-76
2022/11/23 04:45:26;;;;;;;18.30;1.77;;;;;;;;;;4991991;28;20039;-75
2022/11/23 04:47:52;;;;;;;14.95;1.40;;;;;;;;;;4981379;28;20497;-75
2022/11/23 04:50:17;;;;;;;7.22;0.98;;;;;;;;;;4979633;28;20042;-75
2022/11/23 04:52:42;;;;;;;20.60;2.22;;;;;;;;;;4987192;28;20051;-74
2022/11/23 04:55:08;;;;;;;10.00;1.08;;;;;;;;;;4987088;28;20118;-74
2022/11/23 04:57:33;;;;;;;15.63;1.30;;;;;;;;;;4994638;28;20074;-75
2022/11/23 04:59:59;;;;;;;6.78;1.27;;;;;;;;;;4983234;28;20487;-75
2022/11/23 05:02:24;;;;;;;9.57;0.77;;;;;;;;;;4978860;28;20043;-74
2022/11/23 05:04:49;;;;;;;13.50;1.45;;;;;;;;;;4983265;28;20039;-75
2022/11/23 05:07:15;;;;;;;16.17;1.40;;;;;;;;;;4978133;28;20042;-74
2022/11/23 05:09:42;;;;;;;9.88;1.27;;;;;;;;;;4987414;28;20424;-75
2022/11/23 05:12:07;;;;;;;14.80;1.48;;;;;;;;;;4979742;28;20023;-75
2022/11/23 05:14:33;;;;;;;15.38;1.42;;;;;;;;;;4988932;28;20114;-75
2022/11/23 05:16:58;;;;;;;17.30;1.77;;;;;;;;;;4988465;28;20039;-74
2022/11/23 05:19:24;;;;;;;17.98;1.75;;;;;;;;;;4981032;28;20458;-74
2022/11/23 05:21:49;;;;;;;16.02;1.30;;;;;;;;;;4985966;28;20039;-75
2022/11/23 05:24:14;;;;;;;17.95;1.60;;;;;;;;;;4979746;28;20039;-74
2022/11/23 05:26:40;;;;;;;8.40;1.20;;;;;;;;;;4989093;28;20045;-75
2022/11/23 05:29:05;;;;;;;8.30;2.22;;;;;;;;;;4980850;28;20038;-75
2022/11/23 05:31:30;;;;;;;13.02;1.35;;;;;;;;;;4992544;28;20398;-76
2022/11/23 05:33:56;;;;;;;11.10;1.35;;;;;;;;;;4984613;28;20042;-75
2022/11/23 05:36:21;;;;;;;17.77;1.52;;;;;;;;;;4990648;28;20062;-75
2022/11/23 05:38:47;;;;;;;20.65;2.15;;;;;;;;;;5017856;28;20121;-75
2022/11/23 05:41:12;;;;;;;18.60;1.50;;;;;;;;;;4975027;28;20386;-75
2022/11/23 05:43:37;;;;;;;11.70;2.30;;;;;;;;;;4977620;28;20053;-75
2022/11/23 05:46:03;;;;;;;13.55;1.60;;;;;;;;;;4983935;28;20042;-75
2022/11/23 05:48:28;;;;;;;18.02;2.72;;;;;;;;;;4986532;28;20114;-75
2022/11/23 05:50:53;;;;;;;12.05;1.63;;;;;;;;;;4983343;28;20129;-76
2022/11/23 05:53:19;;;;;;;20.27;2.05;;;;;;;;;;4979043;28;20046;-75
2022/11/23 05:55:44;;;;;;;25.27;1.88;;;;;;;;;;4979569;28;20031;-75
2022/11/23 05:58:10;;;;;;;90.93;3.08;;;;;;;;;;4985459;28;20402;-74
2022/11/23 06:00:36;;;;;;;31.70;2.05;;;;;;;;;;4979409;28;20042;-75
2022/11/23 06:03:02;;;;;;;13.73;2.20;;;;;;;;;;4988569;28;20051;-75
2022/11/23 06:05:28;;;;;;;11.55;1.50;;;;;;;;;;4980985;28;20069;-74
2022/11/23 06:07:53;;;;;;;12.60;1.85;;;;;;;;;;4979484;28;20383;-75
2022/11/23 06:10:19;;;;;;;12.95;2.13;;;;;;;;;;4984020;28;20042;-74
2022/11/23 06:12:44;;;;;;;10.40;1.40;;;;;;;;;;4978017;28;20082;-75
2022/11/23 06:15:10;;;;;;;7.07;1.05;;;;;;;;;;4980745;28;20113;-74
2022/11/23 06:17:36;;;;;;;10.98;1.80;;;;;;;;;;4982756;28;20078;-74
2022/11/23 06:20:01;;;;;;;17.23;1.63;;;;;;;;;;4984066;28;20046;-75
2022/11/23 06:22:27;;;;;;;5.22;1.10;;;;;;;;;;4982816;28;20046;-74
2022/11/23 06:24:52;;;;;;;5.70;0.75;;;;;;;;;;4987165;28;20041;-74
2022/11/23 06:27:17;;;;;;;5.72;0.82;;;;;;;;;;4982849;28;20189;-75
2022/11/23 06:29:43;;;;;;;5.88;1.10;;;;;;;;;;4988917;28;20034;-75
2022/11/23 06:32:08;;;;;;;4.20;1.05;;;;;;;;;;4985452;28;20522;-74
2022/11/23 06:34:33;;;;;;;10.70;0.95;;;;;;;;;;4987327;28;20041;-75
2022/11/23 06:36:59;;;;;;;4.07;0.82;;;;;;;;;;4986227;28;20038;-75
2022/11/23 06:39:24;;;;;;;9.57;0.70;;;;;;;;;;4987502;28;20082;-74
2022/11/23 06:41:49;;;;;;;6.05;0.73;;;;;;;;;;4985349;28;20026;-75
2022/11/23 06:44:15;;;;;;;6.10;1.40;;;;;;;;;;4984027;28;20035;-74
2022/11/23 06:46:40;;;;;;;8.30;2.00;;;;;;;;;;4975118;28;20053;-74
2022/11/23 06:49:06;;;;;;;5.38;1.80;;;;;;;;;;4990753;28;20061;-75
2022/11/23 06:51:31;;;;;;;2.30;0.65;;;;;;;;;;4990974;28;20513;-74
2022/11/23 06:53:56;;;;;;;2.28;0.70;;;;;;;;;;5010807;28;20080;-75
2022/11/23 06:56:22;;;;;;;5.45;1.60;;;;;;;;;;4973449;28;20035;-74
2022/11/23 06:58:47;;;;;;;1.50;0.57;;;;;;;;;;4974692;28;20062;-74
2022/11/23 07:01:13;;;;;;;0.70;0.60;;;;;;;;;;4974007;28;20046;-74
2022/11/23 07:03:39;;;;;;;1.15;0.50;;;;;;;;;;4991826;28;20394;-75
2022/11/23 07:06:08;;;;;;;5.07;0.52;;;;;;;;;;4979068;28;20050;-75
2022/11/23 07:08:35;;;;;;;2.75;0.75;;;;;;;;;;4991827;28;20471;-75
2022/11/23 07:11:05;;;;;;;1.10;0.40;;;;;;;;;;4979305;28;20126;-75
2022/11/23 07:13:31;;;;;;;1.55;0.63;;;;;;;;;;4978875;28;20541;-74
2022/11/23 07:15:57;;;;;;;1.50;0.55;;;;;;;;;;4986453;28;20117;-75
2022/11/23 07:18:23;;;;;;;1.13;0.40;;;;;;;;;;4982462;28;20045;-75
2022/11/23 07:20:49;;;;;;;2.10;0.50;;;;;;;;;;4982018;28;20129;-75
2022/11/23 07:23:14;;;;;;;2.58;0.40;;;;;;;;;;4968590;28;20042;-74
2022/11/23 07:25:40;;;;;;;0.38;0.22;;;;;;;;;;4977412;28;20038;-74
2022/11/23 07:28:06;;;;;;;3.40;0.82;;;;;;;;;;4983252;28;20790;-75
2022/11/23 07:30:32;;;;;;;0.80;0.40;;;;;;;;;;4984550;28;20035;-74
2022/11/23 07:32:59;;;;;;;1.42;0.40;;;;;;;;;;4980265;28;20054;-75
2022/11/23 07:35:25;;;;;;;0.93;0.35;;;;;;;;;;4986449;28;20046;-75
2022/11/23 07:37:50;;;;;;;0.82;0.50;;;;;;;;;;4978830;28;20031;-74
2022/11/23 07:40:15;;;;;;;0.55;0.40;;;;;;;;;;4985753;28;20046;-74
2022/11/23 07:42:41;;;;;;;0.95;0.55;;;;;;;;;;4986380;28;20049;-74
2022/11/23 07:45:07;;;;;;;1.50;0.52;;;;;;;;;;4984234;28;20030;-75
2022/11/23 07:47:32;;;;;;;2.83;0.80;;;;;;;;;;4978505;28;20055;-75
2022/11/23 07:49:57;;;;;;;2.30;0.52;;;;;;;;;;4982734;28;20067;-75
2022/11/23 07:52:23;;;;;;;1.27;0.50;;;;;;;;;;4983044;28;20031;-75
2022/11/23 07:54:48;;;;;;;2.10;0.68;;;;;;;;;;4974438;28;20074;-76
2022/11/23 07:57:14;;;;;;;2.97;1.00;;;;;;;;;;4983844;28;20495;-75
2022/11/23 07:59:39;;;;;;;6.35;0.90;;;;;;;;;;4980310;28;20031;-76
2022/11/23 08:02:04;;;;;;;4.18;0.80;;;;;;;;;;4970826;28;20140;-75
2022/11/23 08:04:30;;;;;;;2.65;0.80;;;;;;;;;;4974983;28;20042;-75
2022/11/23 08:06:55;;;;;;;4.72;0.90;;;;;;;;;;4977260;28;20054;-75
2022/11/23 08:09:21;;;;;;;3.75;0.80;;;;;;;;;;4972061;28;20042;-74
2022/11/23 08:11:47;;;;;;;5.85;0.77;;;;;;;;;;4976853;28;20042;-76
2022/11/23 08:14:12;;;;;;;7.35;0.98;;;;;;;;;;4973731;28;20042;-75
2022/11/23 08:16:38;;;;;;;4.25;0.98;;;;;;;;;;4979160;28;20446;-75
2022/11/23 08:19:03;;;;;;;6.22;1.20;;;;;;;;;;4982440;28;20113;-75
2022/11/23 08:21:28;;;;;;;4.82;0.90;;;;;;;;;;4975086;28;20467;-77
2022/11/23 08:23:54;;;;;;;7.10;0.82;;;;;;;;;;4976466;28;20083;-75
2022/11/23 08:26:19;;;;;;;10.30;1.10;;;;;;;;;;4976849;28;20515;-74
2022/11/23 08:28:45;;;;;;;10.60;1.00;;;;;;;;;;4975470;28;20040;-74
2022/11/23 08:31:10;;;;;;;5.57;1.10;;;;;;;;;;4977604;28;20038;-74
2022/11/23 08:33:37;;;;;;;8.70;1.50;;;;;;;;;;4970147;28;20050;-76
2022/11/23 08:36:04;;;;;;;6.18;1.67;;;;;;;;;;4976804;28;20117;-75
2022/11/23 08:38:30;;;;;;;8.13;1.10;;;;;;;;;;4976241;28;20042;-74
2022/11/23 08:40:59;;;;;;;8.10;1.10;;;;;;;;;;4975126;28;20057;-75
2022/11/23 08:43:25;;;;;;;6.57;0.85;;;;;;;;;;4976386;28;20037;-76
2022/11/23 08:45:54;;;;;;;7.15;1.45;;;;;;;;;;4971242;28;20047;-75
2022/11/23 08:48:19;;;;;;;11.38;1.52;;;;;;;;;;4968461;28;20039;-77
2022/11/23 08:50:45;;;;;;;13.50;1.50;;;;;;;;;;4974880;28;20045;-75
2022/11/23 08:53:10;;;;;;;3.33;1.10;;;;;;;;;;4971851;28;20443;-76
2022/11/23 08:55:35;;;;;;;2.97;0.85;;;;;;;;;;4978519;28;20042;-75
2022/11/23 08:58:01;;;;;;;7.00;1.02;;;;;;;;;;4984845;28;20054;-76
2022/11/23 09:00:27;;;;;;;8.55;1.83;;;;;;;;;;4977097;28;20471;-76
2022/11/23 09:02:52;;;;;;;7.82;2.03;;;;;;;;;;4978274;28;20031;-76
2022/11/23 09:05:18;;;;;;;6.30;1.63;;;;;;;;;;4981576;28;20042;-77
2022/11/23 09:07:43;;;;;;;9.43;1.65;;;;;;;;;;4976762;28;20499;-76
2022/11/23 09:10:09;;;;;;;6.82;1.20;;;;;;;;;;4977897;28;21362;-76
2022/11/23 09:12:34;;;;;;;5.32;1.23;;;;;;;;;;4980460;28;20030;-76
2022/11/23 09:14:59;;;;;;;5.18;1.00;;;;;;;;;;4977453;28;20459;-76
2022/11/23 09:17:25;;;;;;;4.53;1.00;;;;;;;;;;4975067;28;20038;-74
2022/11/23 09:19:50;;;;;;;6.65;1.13;;;;;;;;;;4977131;28;20527;-75
2022/11/23 09:22:16;;;;;;;9.57;1.42;;;;;;;;;;4978824;28;20039;-75
2022/11/23 09:24:41;;;;;;;10.45;1.40;;;;;;;;;;4981008;28;20554;-76
2022/11/23 09:27:07;;;;;;;9.27;1.23;;;;;;;;;;4980223;28;20045;-76
2022/11/23 09:29:33;;;;;;;10.23;1.35;;;;;;;;;;4988101;28;20494;-75
2022/11/23 09:31:58;;;;;;;6.40;1.10;;;;;;;;;;4985478;28;20042;-75
2022/11/23 09:34:23;;;;;;;7.93;1.67;;;;;;;;;;4985645;28;20399;-74
2022/11/23 09:36:49;;;;;;;8.23;1.45;;;;;;;;;;4984826;28;20026;-75
2022/11/23 09:39:14;;;;;;;5.18;1.10;;;;;;;;;;4989518;28;20497;-74
2022/11/23 09:41:49;;;;;;;13.02;1.60;;;;;;;;;;4979596;28;20033;-76
2022/11/23 09:44:17;;;;;;;7.25;1.40;;;;;;;;;;4973274;28;20043;-77
2022/11/23 09:47:04;;;;;;;9.75;1.60;;;;;;;;;;4974239;28;20053;-78
2022/11/23 09:50:03;;;;;;;9.05;1.20;;;;;;;;;;4987122;28;20100;-76
2022/11/23 09:52:29;;;;;;;12.63;1.48;;;;;;;;;;4979985;28;20050;-77
2022/11/23 09:54:58;;;;;;;13.70;1.88;;;;;;;;;;4986543;28;20073;-76
2022/11/23 09:57:26;;;;;;;13.32;2.00;;;;;;;;;;4981670;28;20043;-76
2022/11/23 10:00:05;;;;;;;15.40;2.05;;;;;;;;;;4981859;28;20034;-77
2022/11/23 10:02:34;;;;;;;8.38;1.52;;;;;;;;;;4987423;28;20491;-76
2022/11/23 10:05:00;;;;;;;11.27;1.65;;;;;;;;;;4981918;28;20061;-77
2022/11/23 10:07:31;;;;;;;17.25;2.72;;;;;;;;;;4974451;28;20065;-75
2022/11/23 10:10:13;;;;;;;13.38;2.40;;;;;;;;;;4972975;28;20035;-76
2022/11/23 10:12:45;;;;;;;14.75;1.95;;;;;;;;;;4980198;28;20039;-77
2022/11/23 10:15:29;;;;;;;13.93;3.00;;;;;;;;;;4983764;28;20042;-76
2022/11/23 10:18:07;;;;;;;11.52;2.30;;;;;;;;;;4980597;28;20039;-76
2022/11/23 10:20:42;;;;;;;12.05;2.05;;;;;;;;;;4986227;28;20100;-78
2022/11/23 10:23:15;;;;;;;19.65;2.65;;;;;;;;;;4985137;28;20112;-76
2022/11/23 10:25:48;;;;;;;12.07;2.07;;;;;;;;;;4982977;28;20062;-76
2022/11/23 10:28:15;;;;;;;18.80;2.35;;;;;;;;;;4965506;28;20043;-77
2022/11/23 10:30:41;;;;;;;17.65;2.30;;;;;;;;;;4960392;28;20046;-76
2022/11/23 10:33:20;;;;;;;16.00;2.55;;;;;;;;;;4979149;28;20054;-75
2022/11/23 10:35:45;;;;;;;14.98;2.25;;;;;;;;;;4972367;28;20525;-76
2022/11/23 10:38:19;;;;;;;11.82;2.20;;;;;;;;;;4967405;28;20047;-78
2022/11/23 10:41:03;;;;;;;;;;;;;;;;;;4959009;28;20043;-78
2022/11/23 10:43:33;;;;;;;13.07;2.13;;;;;;;;;;4973290;28;19930;-76
2022/11/23 10:46:28;;;;;;;16.55;1.98;;;;;;;;;;4955113;28;21618;-75
2022/11/23 10:48:54;;;;;;;10.98;2.10;;;;;;;;;;4972798;28;20106;-76
2022/11/23 10:51:27;;;;;;;25.33;3.05;;;;;;;;;;4971992;28;20118;-77
2022/11/23 10:53:56;;;;;;;17.48;2.42;;;;;;;;;;4973833;28;20039;-77
2022/11/23 10:56:22;;;;;;;14.23;2.22;;;;;;;;;;4974036;28;20049;-78
2022/11/23 10:58:47;;;;;;;16.80;2.45;;;;;;;;;;4972343;28;20038;-76
2022/11/23 11:01:15;;;;;;;21.40;3.00;;;;;;;;;;4981773;28;20109;-77
2022/11/23 11:03:41;;;;;;;19.67;3.08;;;;;;;;;;4971482;28;20038;-76
2022/11/23 11:06:06;;;;;;;15.73;1.88;;;;;;;;;;4977028;28;20105;-77
2022/11/23 11:08:34;;;;;;;13.27;2.63;;;;;;;;;;4976933;28;20043;-77
2022/11/23 11:11:10;;;;;;;11.95;2.08;;;;;;;;;;4977150;28;20043;-76
2022/11/23 11:13:43;;;;;;;17.05;2.17;;;;;;;;;;4978831;28;20077;-76
2022/11/23 11:16:21;;;;;;;21.77;2.53;;;;;;;;;;4977565;28;20545;-76
2022/11/23 11:18:46;;;;;;;15.43;2.08;;;;;;;;;;4998751;28;20043;-77
2022/11/23 11:21:30;;;;;;;15.30;2.92;;;;;;;;;;4980430;28;20072;-76
2022/11/23 11:24:04;;;;;;;17.88;2.45;;;;;;;;;;4982036;28;20033;-76
2022/11/23 11:26:30;;;;;;;;;;;;;;;;;;4985796;28;20052;-76
2022/11/23 11:29:08;;;;;;;22.67;3.88;;;;;;;;;;5014342;28;20127;-76
2022/11/23 11:31:51;;;;;;;8.30;2.30;;;;;;;;;;4974280;28;20077;-76
2022/11/23 11:34:27;;;;;;;14.07;2.50;;;;;;;;;;4974307;28;20068;-76
2022/11/23 11:37:03;;;;;;;16.48;2.30;;;;;;;;;;4970489;28;20051;-75
2022/11/23 11:39:53;;;;;;;18.13;2.35;;;;;;;;;;4975467;28;20038;-75
2022/11/23 11:42:23;;;;;;;16.20;2.45;;;;;;;;;;4965304;28;20050;-76
2022/11/23 11:44:50;;;;;;;16.80;2.72;;;;;;;;;;4972379;28;20042;-75
2022/11/23 11:47:23;;;;;;;16.02;2.53;;;;;;;;;;4971117;28;20054;-76
2022/11/23 11:49:49;;;;;;;13.02;2.08;;;;;;;;;;4969624;28;20062;-76
2022/11/23 11:52:22;;;;;;;23.92;2.17;;;;;;;;;;4973507;28;20177;-76
2022/11/23 11:55:26;;;;;;;16.00;2.38;;;;;;;;;;4978151;28;20769;-76
2022/11/23 11:57:55;;;;;;;15.57;2.88;;;;;;;;;;4984929;28;20081;-76
2022/11/23 12:00:20;;;;;;;14.98;1.83;;;;;;;;;;4979762;28;20134;-76
2022/11/23 12:03:05;;;;;;;14.23;2.17;;;;;;;;;;4973654;28;20129;-77
2022/11/23 12:05:51;;;;;;;13.63;1.80;;;;;;;;;;4959593;28;20129;-75
2022/11/23 12:08:39;;;;;;;12.10;1.77;;;;;;;;;;4986515;28;20521;-77
2022/11/23 12:11:06;;;;;;;15.85;2.25;;;;;;;;;;4971451;28;20057;-76
2022/11/23 12:13:33;;;;;;;10.02;1.60;;;;;;;;;;4974856;28;20067;-76
2022/11/23 12:16:19;;;;;;;9.38;1.95;;;;;;;;;;4994779;28;20041;-76
2022/11/23 12:18:47;;;;;;;10.75;2.30;;;;;;;;;;4978896;28;20045;-77
2022/11/23 12:21:37;;;;;;;8.45;1.45;;;;;;;;;;4971917;28;20042;-76
2022/11/23 12:24:15;;;;;;;19.85;2.08;;;;;;;;;;4979919;28;20053;-76
2022/11/23 12:26:49;;;;;;;19.23;2.70;;;;;;;;;;4984164;28;20073;-75
2022/11/23 12:29:39;;;;;;;2.65;0.90;;;;;;;;;;4971392;28;20050;-76
2022/11/23 12:32:19;;;;;;;8.32;1.00;;;;;;;;;;4983899;28;20041;-75
2022/11/23 12:35:20;;;;;;;10.27;0.98;;;;;;;;;;4986091;28;20502;-76
2022/11/23 12:37:45;;;;;;;8.38;1.13;;;;;;;;;;4972056;28;20031;-77
2022/11/23 12:40:30;;;;;;;11.73;1.10;;;;;;;;;;4984913;28;20046;-76
2022/11/23 12:43:13;;;;;;;5.72;1.00;;;;;;;;;;4972994;28;20046;-76
2022/11/23 12:45:50;;;;;;;6.03;1.10;;;;;;;;;;5006036;28;20405;-76
2022/11/23 12:48:33;;;;;;;11.70;1.40;;;;;;;;;;4982653;28;20044;-76
2022/11/23 12:51:21;;;;;;;5.82;1.02;;;;;;;;;;4974048;28;20122;-76
2022/11/23 12:54:12;;;;;;;4.22;0.77;;;;;;;;;;4980839;28;20038;-76
2022/11/23 12:56:54;;;;;;;8.85;1.08;;;;;;;;;;4971325;28;20074;-78
2022/11/23 12:59:20;;;;;;;5.28;0.98;;;;;;;;;;4964793;28;20041;-76
2022/11/23 13:01:51;;;;;;;6.88;0.98;;;;;;;;;;4976917;28;20039;-76
2022/11/23 13:04:31;;;;;;;12.30;1.20;;;;;;;;;;4983596;28;20092;-76
2022/11/23 13:07:05;;;;;;;10.90;1.60;;;;;;;;;;4978283;28;20479;-76
2022/11/23 13:09:36;;;;;;;;;;;;;;;;;;4988558;28;20042;-76
2022/11/23 13:12:28;;;;;;;4.03;1.00;;;;;;;;;;4969399;28;19921;-75
2022/11/23 13:15:15;;;;;;;2.83;0.85;;;;;;;;;;4976479;28;20046;-75
2022/11/23 13:18:10;;;;;;;5.70;0.90;;;;;;;;;;4988929;28;20049;-77
2022/11/23 13:21:01;;;;;;;6.32;1.65;;;;;;;;;;4982743;28;20073;-76
2022/11/23 13:23:26;;;;;;;14.23;1.23;;;;;;;;;;4977920;28;20058;-77
2022/11/23 13:26:11;;;;;;;16.00;1.08;;;;;;;;;;4981056;28;20066;-76
2022/11/23 13:28:44;;;;;;;10.38;1.83;;;;;;;;;;4971851;28;20038;-77
2022/11/23 13:31:17;;;;;;;9.73;1.33;;;;;;;;;;4976946;28;20049;-76
2022/11/23 13:33:45;;;;;;;7.85;1.10;;;;;;;;;;4983640;28;20121;-76
2022/11/23 13:36:12;;;;;;;23.90;1.70;;;;;;;;;;4990697;28;20133;-76
2022/11/23 13:38:39;;;;;;;12.82;1.65;;;;;;;;;;4979978;28;20035;-75
2022/11/23 13:41:33;;;;;;;19.85;1.80;;;;;;;;;;4979688;28;20046;-75
2022/11/23 13:44:11;;;;;;;19.85;2.25;;;;;;;;;;4985100;28;20045;-75
2022/11/23 13:46:36;;;;;;;26.23;3.13;;;;;;;;;;4975345;28;20057;-76
2022/11/23 13:49:02;;;;;;;15.45;1.88;;;;;;;;;;4986594;28;20042;-76
2022/11/23 13:51:30;;;;;;;13.30;2.42;;;;;;;;;;4982578;28;20471;-76
2022/11/23 13:54:04;;;;;;;21.92;3.92;;;;;;;;;;4985051;28;20061;-77
2022/11/23 13:56:36;;;;;;;19.65;3.03;;;;;;;;;;4978954;28;20093;-76
2022/11/23 13:59:23;;;;;;;18.25;2.15;;;;;;;;;;4977116;28;20038;-76
2022/11/23 14:02:07;;;;;;;16.05;2.15;;;;;;;;;;4981679;28;20042;-76
2022/11/23 14:04:38;;;;;;;11.95;2.30;;;;;;;;;;4977495;28;20100;-76
2022/11/23 14:07:34;;;;;;;35.25;8.48;;;;;;;;;;4979398;28;20133;-77
2022/11/23 14:10:13;;;;;;;20.60;2.63;;;;;;;;;;4988868;28;20038;-77
2022/11/23 14:12:49;;;;;;;20.33;2.78;;;;;;;;;;4981558;28;20822;-76
2022/11/23 14:15:17;;;;;;;11.40;2.35;;;;;;;;;;4986755;28;20046;-76
2022/11/23 14:17:56;;;;;;;6.63;1.48;;;;;;;;;;4987709;28;20165;-76
2022/11/23 14:20:48;;;;;;;12.40;1.92;;;;;;;;;;5000204;28;20397;-76
2022/11/23 14:23:38;;;;;;;9.80;1.60;;;;;;;;;;4971318;28;20039;-77
2022/11/23 14:26:12;;;;;;;12.25;1.70;;;;;;;;;;4980251;28;20050;-77
2022/11/23 14:29:16;;;;;;;10.27;1.63;;;;;;;;;;4976710;28;20458;-76
2022/11/23 14:31:56;;;;;;;14.50;1.77;;;;;;;;;;4957983;28;20609;-76
2022/11/23 14:34:34;;;;;;;12.60;3.90;;;;;;;;;;4968896;28;20050;-77
2022/11/23 14:37:03;;;;;;;11.57;2.72;;;;;;;;;;4974407;28;20042;-76
2022/11/23 14:39:49;;;;;;;19.27;2.40;;;;;;;;;;4982470;28;20070;-76
2022/11/23 14:42:17;;;;;;;22.98;2.60;;;;;;;;;;4983134;28;20038;-76
2022/11/23 14:44:43;;;;;;;12.48;2.22;;;;;;;;;;4986419;28;20042;-76
2022/11/23 14:47:09;;;;;;;18.38;2.03;;;;;;;;;;4978137;28;20047;-76
2022/11/23 14:49:35;;;;;;;15.82;1.88;;;;;;;;;;4981565;28;20045;-76